NCAR-RAP Real-Time Weather Data

Output produced by METARs form (28 April 2011  15:05 UTC)
found at http://www.rap.ucar.edu/weather/surface/
 

KBHM 280245Z 30009G24KT 6SM RA FEW016 BKN031 BKN037 21/18 A2976 RMK AO2 PK WND 31031/0232 WSHFT 0225 TSE11RAE11B42 PRESRR TS MOV NE P0001
KBHM 280211Z 23011G22KT 8SM FEW015 BKN060 BKN075 24/23 A2970 RMK AO2 TSE11RAE11 TS MOV NE P0001
KBHM 280153Z 23020G58KT 4SM R06/3500VP6000FT TSRA SCT021CB BKN070 OVC100 24/21 A2969 RMK AO2 PK WND 26058/0146 WSHFT 0133 TSB14RAB30 SLP045 OCNL LTGICCC N-E TS N-E MOV NE P0010 T02440211
KBHM 280148Z 22023G58KT 190V250 1 3/4SM R06/3500VP6000FT TSRA SCT021CB BKN070 OVC100 23/20 A2968 RMK AO2 PK WND 26058/0146 WSHFT 0133 VIS 1/2V5 TSB14RAB30 OCNL LTGICCC N-E TS N-E MOV NE P0003
KBHM 280115Z 19016G25KT 8SM TS SCT021CB BKN070 OVC100 24/22 A2966 RMK AO2 PK WND 20031/0104 TSB14 OCNL LTGICCC N-E TS N-E MOV NE
KBHM 280053Z 22014G27KT 9SM FEW021 BKN032 BKN049 25/22 A2966 RMK AO2 PK WND 18039/0013 RAE2355 SLP037 P0000 T02500217
KBHM 280019Z 19020G39KT 9SM FEW024 SCT029 SCT037 26/21 A2965 RMK AO2 PK WND 18039/0013 RAE2355 P0000
KBHM 272353Z 20018G28KT 10SM -RA FEW020 BKN029 OVC055 26/21 A2963 RMK TORNADO B02 TORNADO N MOV NE TORNADO E10 AO2 PK WND 25036/2324 WSHFT 2304 TSE34 SLP027 TS MOV NE P0021 60024 T02560211 10289 20228 53013
KBHM 272335Z 22009KT 7SM SCT020 BKN029 OVC055 23/21 A2962 RMK TORNADO B02 TORNADO N MOV NE TORNADO E10 AO2 PK WND 25036/2324 WSHFT 2304 TSE34RAE34 TS MOV NE P0021
KBHM 272324Z 25026G36KT 9SM TS BKN034CB OVC070 25/21 A2964 RMK TORNADO B02 TORNADO N MOV NE TORNADO E10 AO2 PK WND 25036/2324 WSHFT 2304 RAE18 PRESRR OCNL LTGICCCCG N TS N MOV NE P0021
KBHM 272312Z 17014G30KT 5SM TSRA FEW037CB BKN046 OVC070 24/21 A2956 RMK TORNADO B02 TORNADO N MOV NE TORNADO E10 AO2 PK WND 12030/2309 OCNL LTGICCCCG ALQDS TS ALQDS P0021
KBHM 272304Z 13010G21KT 1 1/4SM R06/5000VP6000FT +FC TSRA BR FEW037CB BKN046 OVC070 24/22 A2956 RMK TORNADO B02 TORNADO W-N MOV NE AO2 PRESFR OCNL LTGICCCCG ALQDS TS ALQDS P0021
KBHM 272301Z VRB06G23KT 1 1/4SM R06/5000VP6000FT TSRA FEW037CB BKN046 OVC070 24/22 A2959 RMK AO2 VIS 1/2V2 PRESFR OCNL LTGICCCCG ALQDS TS ALQDS P0014
KBHM 272253Z 18018G28KT 2SM R06/4000VP6000FT TSRA SCT040CB BKN050 OVC060 25/22 A2961 RMK AO2 PK WND 19038/2214 TSB29RAE2155B31 SLP020 OCNL LTGICCC W-N TS W-N MOV NE P0003 T02500217
KBHM 272246Z 19018G29KT 2 1/2SM TSRA SCT040CB BKN050 OVC060 26/21 A2963 RMK AO2 PK WND 19038/2214 TSB29RAE2155B31 OCNL LTGICCC W-N TS W-N MOV NE P0001
KBHM 272229Z 19017G32KT 10SM TS SCT040CB BKN050 OVC060 27/21 A2961 RMK AO2 PK WND 19038/2214 TSB29RAE2155 OCNL LTGICCC W-N TS W-N MOV NE P0000